Terminal Aerodrome Forecast
Issued by NWS

Home | Current Version | Previous Version | Text Only | Print | Product List | Glossary On
Versions: 1 2 3 4 5 6 7 8 9 10 11 12 13
168
FTUS46 KMTR 191220 AAA
TAFMRY
TAF AMD
KMRY 191220Z 1912/2012 19005KT P6SM -SHRA VCTS SCT030 BKN050CB
     FM191400 19005KT P6SM -SHRA SCT030 BKN050
     FM191700 24008KT P6SM BKN050
     FM200300 15004KT P6SM BKN050
     FM200700 15010KT P6SM -RA BKN040 OVC070=

USA.gov is the U.S. government's official web portal to all federal, state and local government web resources and services.